sensor_id;sensor_type;location;lat;lon;timestamp;temperature;humidity
16102;DHT22;56411;52.964;10.540;2023-03-26T00:00:39;6.60;99.90
16102;DHT22;56411;52.964;10.540;2023-03-26T00:03:08;6.60;99.90
16102;DHT22;56411;52.964;10.540;2023-03-26T00:05:38;6.70;99.90
16102;DHT22;56411;52.964;10.540;2023-03-26T00:08:06;6.70;99.90
16102;DHT22;56411;52.964;10.540;2023-03-26T00:10:34;6.70;99.90
16102;DHT22;56411;52.964;10.540;2023-03-26T00:13:02;6.70;99.90
16102;DHT22;56411;52.964;10.540;2023-03-26T00:15:29;6.80;99.90
16102;DHT22;56411;52.964;10.540;2023-03-26T00:17:57;6.70;99.90
16102;DHT22;56411;52.964;10.540;2023-03-26T00:20:25;6.80;99.90
16102;DHT22;56411;52.964;10.540;2023-03-26T00:22:54;6.80;99.90
16102;DHT22;56411;52.964;10.540;2023-03-26T00:25:22;6.80;99.90
16102;DHT22;56411;52.964;10.540;2023-03-26T00:27:49;6.70;99.90
16102;DHT22;56411;52.964;10.540;2023-03-26T00:30:17;6.70;99.90
16102;DHT22;56411;52.964;10.540;2023-03-26T00:32:44;6.70;99.90
16102;DHT22;56411;52.964;10.540;2023-03-26T00:35:12;6.70;99.90
16102;DHT22;56411;52.964;10.540;2023-03-26T00:37:39;6.70;99.90
16102;DHT22;56411;52.964;10.540;2023-03-26T00:40:10;6.60;99.90
16102;DHT22;56411;52.964;10.540;2023-03-26T00:42:37;6.60;99.90
16102;DHT22;56411;52.964;10.540;2023-03-26T00:45:05;6.60;99.90
16102;DHT22;56411;52.964;10.540;2023-03-26T00:47:33;6.70;99.90
16102;DHT22;56411;52.964;10.540;2023-03-26T00:50:00;6.70;99.90
16102;DHT22;56411;52.964;10.540;2023-03-26T00:52:31;6.70;99.90
16102;DHT22;56411;52.964;10.540;2023-03-26T00:55:00;6.60;99.90
16102;DHT22;56411;52.964;10.540;2023-03-26T00:57:29;6.60;99.90
16102;DHT22;56411;52.964;10.540;2023-03-26T00:59:56;6.50;99.90
16102;DHT22;56411;52.964;10.540;2023-03-26T01:02:24;6.60;99.90
16102;DHT22;56411;52.964;10.540;2023-03-26T01:04:58;6.50;99.90
16102;DHT22;56411;52.964;10.540;2023-03-26T01:07:27;6.60;99.90
16102;DHT22;56411;52.964;10.540;2023-03-26T01:09:57;6.60;99.90
16102;DHT22;56411;52.964;10.540;2023-03-26T01:12:26;6.60;99.90
16102;DHT22;56411;52.964;10.540;2023-03-26T01:14:59;6.50;99.90
16102;DHT22;56411;52.964;10.540;2023-03-26T01:17:28;6.50;99.90
16102;DHT22;56411;52.964;10.540;2023-03-26T01:20:06;6.50;99.90
16102;DHT22;56411;52.964;10.540;2023-03-26T01:22:38;6.50;99.90
16102;DHT22;56411;52.964;10.540;2023-03-26T01:25:08;6.50;99.90
16102;DHT22;56411;52.964;10.540;2023-03-26T01:27:38;6.60;99.90
16102;DHT22;56411;52.964;10.540;2023-03-26T01:30:12;6.50;99.90
16102;DHT22;56411;52.964;10.540;2023-03-26T01:32:50;6.50;99.90
16102;DHT22;56411;52.964;10.540;2023-03-26T01:35:26;6.50;99.90
16102;DHT22;56411;52.964;10.540;2023-03-26T01:38:06;6.50;99.90
16102;DHT22;56411;52.964;10.540;2023-03-26T01:40:41;6.50;99.90
16102;DHT22;56411;52.964;10.540;2023-03-26T01:43:16;6.50;99.90
16102;DHT22;56411;52.964;10.540;2023-03-26T01:45:46;6.50;99.90
16102;DHT22;56411;52.964;10.540;2023-03-26T01:48:15;6.50;99.90
16102;DHT22;56411;52.964;10.540;2023-03-26T01:50:43;6.60;99.90
16102;DHT22;56411;52.964;10.540;2023-03-26T01:53:12;6.60;99.90
16102;DHT22;56411;52.964;10.540;2023-03-26T01:55:51;6.60;99.90
16102;DHT22;56411;52.964;10.540;2023-03-26T01:58:28;6.60;99.90
16102;DHT22;56411;52.964;10.540;2023-03-26T02:01:07;6.60;99.90
16102;DHT22;56411;52.964;10.540;2023-03-26T02:03:44;6.50;99.90
16102;DHT22;56411;52.964;10.540;2023-03-26T02:06:15;6.50;99.90
16102;DHT22;56411;52.964;10.540;2023-03-26T02:08:48;6.50;99.90
16102;DHT22;56411;52.964;10.540;2023-03-26T02:11:21;6.40;99.90
16102;DHT22;56411;52.964;10.540;2023-03-26T02:13:48;6.40;99.90
16102;DHT22;56411;52.964;10.540;2023-03-26T02:16:18;6.40;99.90
16102;DHT22;56411;52.964;10.540;2023-03-26T02:18:46;6.40;99.90
16102;DHT22;56411;52.964;10.540;2023-03-26T02:21:17;6.50;99.90
16102;DHT22;56411;52.964;10.540;2023-03-26T02:23:49;6.50;99.90
16102;DHT22;56411;52.964;10.540;2023-03-26T02:26:24;6.40;99.90
16102;DHT22;56411;52.964;10.540;2023-03-26T02:28:51;6.30;99.90
16102;DHT22;56411;52.964;10.540;2023-03-26T02:31:18;6.30;99.90
16102;DHT22;56411;52.964;10.540;2023-03-26T02:33:46;6.20;99.90
16102;DHT22;56411;52.964;10.540;2023-03-26T02:36:14;6.20;99.90
16102;DHT22;56411;52.964;10.540;2023-03-26T02:38:44;6.20;99.90
16102;DHT22;56411;52.964;10.540;2023-03-26T02:41:11;6.10;99.90
16102;DHT22;56411;52.964;10.540;2023-03-26T02:43:39;6.10;99.90
16102;DHT22;56411;52.964;10.540;2023-03-26T02:46:06;6.10;99.90
16102;DHT22;56411;52.964;10.540;2023-03-26T02:48:34;6.10;99.90
16102;DHT22;56411;52.964;10.540;2023-03-26T02:51:01;6.10;99.90
16102;DHT22;56411;52.964;10.540;2023-03-26T02:53:28;6.10;99.90
16102;DHT22;56411;52.964;10.540;2023-03-26T02:55:56;6.10;99.90
16102;DHT22;56411;52.964;10.540;2023-03-26T02:58:24;6.10;99.90
16102;DHT22;56411;52.964;10.540;2023-03-26T03:00:53;6.10;99.90
16102;DHT22;56411;52.964;10.540;2023-03-26T03:03:20;6.10;99.90
16102;DHT22;56411;52.964;10.540;2023-03-26T03:05:50;6.10;99.90
16102;DHT22;56411;52.964;10.540;2023-03-26T03:08:18;6.10;99.90
16102;DHT22;56411;52.964;10.540;2023-03-26T03:10:55;6.10;99.90
16102;DHT22;56411;52.964;10.540;2023-03-26T03:13:22;6.00;99.90
16102;DHT22;56411;52.964;10.540;2023-03-26T03:15:49;5.90;99.90
16102;DHT22;56411;52.964;10.540;2023-03-26T03:18:17;5.90;99.90
16102;DHT22;56411;52.964;10.540;2023-03-26T03:20:45;5.90;99.90
16102;DHT22;56411;52.964;10.540;2023-03-26T03:23:13;5.90;99.90
16102;DHT22;56411;52.964;10.540;2023-03-26T03:25:41;5.80;99.90
16102;DHT22;56411;52.964;10.540;2023-03-26T03:28:08;5.80;99.90
16102;DHT22;56411;52.964;10.540;2023-03-26T03:30:35;5.80;99.90
16102;DHT22;56411;52.964;10.540;2023-03-26T03:33:03;5.80;99.90
16102;DHT22;56411;52.964;10.540;2023-03-26T03:35:32;5.70;99.90
16102;DHT22;56411;52.964;10.540;2023-03-26T03:37:59;5.70;99.90
16102;DHT22;56411;52.964;10.540;2023-03-26T03:40:27;5.70;99.90
16102;DHT22;56411;52.964;10.540;2023-03-26T03:42:54;5.70;99.90
16102;DHT22;56411;52.964;10.540;2023-03-26T03:45:21;5.70;99.90
16102;DHT22;56411;52.964;10.540;2023-03-26T03:47:48;5.70;99.90
16102;DHT22;56411;52.964;10.540;2023-03-26T03:50:16;5.70;99.90
16102;DHT22;56411;52.964;10.540;2023-03-26T03:52:44;5.70;99.90
16102;DHT22;56411;52.964;10.540;2023-03-26T03:55:11;5.70;99.90
16102;DHT22;56411;52.964;10.540;2023-03-26T03:57:39;5.70;99.90
16102;DHT22;56411;52.964;10.540;2023-03-26T04:00:07;5.70;99.90
16102;DHT22;56411;52.964;10.540;2023-03-26T04:02:36;5.70;99.90
16102;DHT22;56411;52.964;10.540;2023-03-26T04:05:04;5.70;99.90
16102;DHT22;56411;52.964;10.540;2023-03-26T04:07:32;5.70;99.90
16102;DHT22;56411;52.964;10.540;2023-03-26T04:10:00;5.70;99.90
16102;DHT22;56411;52.964;10.540;2023-03-26T04:12:29;5.70;99.90
16102;DHT22;56411;52.964;10.540;2023-03-26T04:14:57;5.60;99.90
16102;DHT22;56411;52.964;10.540;2023-03-26T04:17:25;5.60;99.90
16102;DHT22;56411;52.964;10.540;2023-03-26T04:19:54;5.60;99.90
16102;DHT22;56411;52.964;10.540;2023-03-26T04:22:22;5.70;99.90
16102;DHT22;56411;52.964;10.540;2023-03-26T04:25:02;5.70;99.90
16102;DHT22;56411;52.964;10.540;2023-03-26T04:27:32;5.70;99.90
16102;DHT22;56411;52.964;10.540;2023-03-26T04:30:02;5.70;99.90
16102;DHT22;56411;52.964;10.540;2023-03-26T04:32:30;5.70;99.90
16102;DHT22;56411;52.964;10.540;2023-03-26T04:34:59;5.70;99.90
16102;DHT22;56411;52.964;10.540;2023-03-26T04:37:31;5.70;99.90
16102;DHT22;56411;52.964;10.540;2023-03-26T04:40:03;5.70;99.90
16102;DHT22;56411;52.964;10.540;2023-03-26T04:42:34;5.70;99.90
16102;DHT22;56411;52.964;10.540;2023-03-26T04:45:03;5.70;99.90
16102;DHT22;56411;52.964;10.540;2023-03-26T04:47:30;5.70;99.90
16102;DHT22;56411;52.964;10.540;2023-03-26T04:50:02;5.70;99.90
16102;DHT22;56411;52.964;10.540;2023-03-26T04:52:29;5.70;99.90
16102;DHT22;56411;52.964;10.540;2023-03-26T04:54:56;5.70;99.90
16102;DHT22;56411;52.964;10.540;2023-03-26T04:57:30;5.70;99.90
16102;DHT22;56411;52.964;10.540;2023-03-26T04:59:58;5.80;99.90
16102;DHT22;56411;52.964;10.540;2023-03-26T05:02:26;5.80;99.90
16102;DHT22;56411;52.964;10.540;2023-03-26T05:04:53;5.80;99.90
16102;DHT22;56411;52.964;10.540;2023-03-26T05:07:21;5.80;99.90
16102;DHT22;56411;52.964;10.540;2023-03-26T05:09:49;5.80;99.90
16102;DHT22;56411;52.964;10.540;2023-03-26T05:12:16;5.80;99.90
16102;DHT22;56411;52.964;10.540;2023-03-26T05:14:45;5.80;99.90
16102;DHT22;56411;52.964;10.540;2023-03-26T05:17:13;5.80;99.90
16102;DHT22;56411;52.964;10.540;2023-03-26T05:19:43;5.80;99.90
16102;DHT22;56411;52.964;10.540;2023-03-26T05:22:11;5.80;99.90
16102;DHT22;56411;52.964;10.540;2023-03-26T05:24:38;5.80;99.90
16102;DHT22;56411;52.964;10.540;2023-03-26T05:27:05;5.80;99.90
16102;DHT22;56411;52.964;10.540;2023-03-26T05:29:32;5.80;99.90
16102;DHT22;56411;52.964;10.540;2023-03-26T05:32:01;5.80;99.90
16102;DHT22;56411;52.964;10.540;2023-03-26T05:34:28;5.80;99.90
16102;DHT22;56411;52.964;10.540;2023-03-26T05:36:55;5.80;99.90
16102;DHT22;56411;52.964;10.540;2023-03-26T05:39:23;5.80;99.90
16102;DHT22;56411;52.964;10.540;2023-03-26T05:41:52;5.80;99.90
16102;DHT22;56411;52.964;10.540;2023-03-26T05:44:19;5.80;99.90
16102;DHT22;56411;52.964;10.540;2023-03-26T05:46:46;5.90;99.90
16102;DHT22;56411;52.964;10.540;2023-03-26T05:49:15;5.90;99.90
16102;DHT22;56411;52.964;10.540;2023-03-26T05:51:42;5.90;99.90
16102;DHT22;56411;52.964;10.540;2023-03-26T05:54:09;5.90;99.90
16102;DHT22;56411;52.964;10.540;2023-03-26T05:56:36;5.90;99.90
16102;DHT22;56411;52.964;10.540;2023-03-26T05:59:03;5.90;99.90
16102;DHT22;56411;52.964;10.540;2023-03-26T06:01:33;6.00;99.90
16102;DHT22;56411;52.964;10.540;2023-03-26T06:04:01;6.00;99.90
16102;DHT22;56411;52.964;10.540;2023-03-26T06:06:32;6.00;99.90
16102;DHT22;56411;52.964;10.540;2023-03-26T06:08:59;6.00;99.90
16102;DHT22;56411;52.964;10.540;2023-03-26T06:11:26;6.10;99.90
16102;DHT22;56411;52.964;10.540;2023-03-26T06:13:53;6.10;99.90
16102;DHT22;56411;52.964;10.540;2023-03-26T06:16:21;6.10;99.90
16102;DHT22;56411;52.964;10.540;2023-03-26T06:18:48;6.20;99.90
16102;DHT22;56411;52.964;10.540;2023-03-26T06:21:16;6.10;99.90
16102;DHT22;56411;52.964;10.540;2023-03-26T06:23:45;6.10;99.90
16102;DHT22;56411;52.964;10.540;2023-03-26T06:26:14;6.20;99.90
16102;DHT22;56411;52.964;10.540;2023-03-26T06:28:41;6.20;99.90
16102;DHT22;56411;52.964;10.540;2023-03-26T06:31:34;6.20;99.90
16102;DHT22;56411;52.964;10.540;2023-03-26T06:34:01;6.20;99.90
16102;DHT22;56411;52.964;10.540;2023-03-26T06:36:28;6.20;99.90
16102;DHT22;56411;52.964;10.540;2023-03-26T06:38:56;6.20;99.90
16102;DHT22;56411;52.964;10.540;2023-03-26T06:41:23;6.30;99.90
16102;DHT22;56411;52.964;10.540;2023-03-26T06:50:46;6.30;99.90
16102;DHT22;56411;52.964;10.540;2023-03-26T06:53:13;6.30;99.90
16102;DHT22;56411;52.964;10.540;2023-03-26T06:55:42;6.20;99.90
16102;DHT22;56411;52.964;10.540;2023-03-26T06:58:10;6.20;99.90
16102;DHT22;56411;52.964;10.540;2023-03-26T07:00:37;6.20;99.90
16102;DHT22;56411;52.964;10.540;2023-03-26T07:03:05;6.20;99.90
16102;DHT22;56411;52.964;10.540;2023-03-26T07:05:33;6.20;99.90
16102;DHT22;56411;52.964;10.540;2023-03-26T07:08:00;6.20;99.90
16102;DHT22;56411;52.964;10.540;2023-03-26T07:10:27;6.20;99.90
16102;DHT22;56411;52.964;10.540;2023-03-26T07:12:56;6.30;99.90
16102;DHT22;56411;52.964;10.540;2023-03-26T07:15:23;6.30;99.90
16102;DHT22;56411;52.964;10.540;2023-03-26T07:17:50;6.30;99.90
16102;DHT22;56411;52.964;10.540;2023-03-26T07:20:17;6.30;99.90
16102;DHT22;56411;52.964;10.540;2023-03-26T07:22:44;6.30;99.90
16102;DHT22;56411;52.964;10.540;2023-03-26T07:25:13;6.40;99.90
16102;DHT22;56411;52.964;10.540;2023-03-26T07:27:48;6.40;99.90
16102;DHT22;56411;52.964;10.540;2023-03-26T07:30:24;6.40;99.90
16102;DHT22;56411;52.964;10.540;2023-03-26T07:33:00;6.60;99.90
16102;DHT22;56411;52.964;10.540;2023-03-26T07:35:29;6.60;99.90
16102;DHT22;56411;52.964;10.540;2023-03-26T07:38:12;6.60;99.90
16102;DHT22;56411;52.964;10.540;2023-03-26T07:40:53;6.60;99.90
16102;DHT22;56411;52.964;10.540;2023-03-26T07:43:39;6.60;99.90
16102;DHT22;56411;52.964;10.540;2023-03-26T07:46:10;6.60;99.90
16102;DHT22;56411;52.964;10.540;2023-03-26T07:48:39;6.70;99.90
16102;DHT22;56411;52.964;10.540;2023-03-26T07:51:09;6.80;99.90
16102;DHT22;56411;52.964;10.540;2023-03-26T07:53:37;6.90;99.90
16102;DHT22;56411;52.964;10.540;2023-03-26T07:56:09;7.00;99.90
16102;DHT22;56411;52.964;10.540;2023-03-26T07:58:57;7.00;99.90
16102;DHT22;56411;52.964;10.540;2023-03-26T08:01:38;7.20;99.90
16102;DHT22;56411;52.964;10.540;2023-03-26T08:04:24;7.30;99.90
16102;DHT22;56411;52.964;10.540;2023-03-26T08:06:58;7.40;99.90
16102;DHT22;56411;52.964;10.540;2023-03-26T08:09:31;7.30;99.90
16102;DHT22;56411;52.964;10.540;2023-03-26T08:12:05;7.30;99.90
16102;DHT22;56411;52.964;10.540;2023-03-26T08:14:43;7.30;99.90
16102;DHT22;56411;52.964;10.540;2023-03-26T08:17:20;7.30;99.90
16102;DHT22;56411;52.964;10.540;2023-03-26T08:19:54;7.40;99.90
16102;DHT22;56411;52.964;10.540;2023-03-26T08:22:26;7.50;99.90
16102;DHT22;56411;52.964;10.540;2023-03-26T08:25:17;7.40;99.90
16102;DHT22;56411;52.964;10.540;2023-03-26T08:27:59;7.30;99.90
16102;DHT22;56411;52.964;10.540;2023-03-26T08:30:28;7.30;99.90
16102;DHT22;56411;52.964;10.540;2023-03-26T08:32:59;7.30;99.90
16102;DHT22;56411;52.964;10.540;2023-03-26T08:35:28;7.20;99.90
16102;DHT22;56411;52.964;10.540;2023-03-26T08:37:55;7.40;99.90
16102;DHT22;56411;52.964;10.540;2023-03-26T08:40:47;7.40;99.90
16102;DHT22;56411;52.964;10.540;2023-03-26T08:43:36;7.50;99.90
16102;DHT22;56411;52.964;10.540;2023-03-26T08:46:44;7.50;99.90
16102;DHT22;56411;52.964;10.540;2023-03-26T08:49:54;7.50;99.90
16102;DHT22;56411;52.964;10.540;2023-03-26T08:52:40;7.60;99.90
16102;DHT22;56411;52.964;10.540;2023-03-26T08:55:42;7.60;99.90
16102;DHT22;56411;52.964;10.540;2023-03-26T09:01:57;7.60;99.90
16102;DHT22;56411;52.964;10.540;2023-03-26T09:05:08;7.60;99.90
16102;DHT22;56411;52.964;10.540;2023-03-26T09:11:07;7.50;99.90
16102;DHT22;56411;52.964;10.540;2023-03-26T09:14:02;7.50;99.90
16102;DHT22;56411;52.964;10.540;2023-03-26T09:17:12;7.40;99.90
16102;DHT22;56411;52.964;10.540;2023-03-26T09:23:20;7.60;99.90
16102;DHT22;56411;52.964;10.540;2023-03-26T09:26:24;7.70;99.90
16102;DHT22;56411;52.964;10.540;2023-03-26T09:32:25;7.70;99.90
16102;DHT22;56411;52.964;10.540;2023-03-26T09:35:09;7.70;99.90
16102;DHT22;56411;52.964;10.540;2023-03-26T09:37:49;7.60;99.90
16102;DHT22;56411;52.964;10.540;2023-03-26T09:40:23;7.60;99.90
16102;DHT22;56411;52.964;10.540;2023-03-26T09:43:00;7.60;99.90
16102;DHT22;56411;52.964;10.540;2023-03-26T09:45:51;7.70;99.90
16102;DHT22;56411;52.964;10.540;2023-03-26T09:49:10;7.70;99.90
16102;DHT22;56411;52.964;10.540;2023-03-26T09:51:52;7.70;99.90
16102;DHT22;56411;52.964;10.540;2023-03-26T09:54:45;7.40;99.90
16102;DHT22;56411;52.964;10.540;2023-03-26T09:57:20;7.50;99.90
16102;DHT22;56411;52.964;10.540;2023-03-26T10:00:18;7.50;99.90
16102;DHT22;56411;52.964;10.540;2023-03-26T10:03:02;7.50;99.90
16102;DHT22;56411;52.964;10.540;2023-03-26T10:05:47;7.50;99.90
16102;DHT22;56411;52.964;10.540;2023-03-26T10:11:17;7.60;99.90
16102;DHT22;56411;52.964;10.540;2023-03-26T10:14:02;7.70;99.90
16102;DHT22;56411;52.964;10.540;2023-03-26T10:16:41;7.80;99.90
16102;DHT22;56411;52.964;10.540;2023-03-26T10:19:30;7.70;99.90
16102;DHT22;56411;52.964;10.540;2023-03-26T10:22:08;7.70;99.90
16102;DHT22;56411;52.964;10.540;2023-03-26T10:24:56;7.90;99.90
16102;DHT22;56411;52.964;10.540;2023-03-26T10:27:36;8.00;99.90
16102;DHT22;56411;52.964;10.540;2023-03-26T10:30:37;8.20;99.90
16102;DHT22;56411;52.964;10.540;2023-03-26T10:33:17;8.40;99.90
16102;DHT22;56411;52.964;10.540;2023-03-26T10:35:58;8.50;99.90
16102;DHT22;56411;52.964;10.540;2023-03-26T10:38:38;8.60;99.90
16102;DHT22;56411;52.964;10.540;2023-03-26T10:41:15;8.50;99.90
16102;DHT22;56411;52.964;10.540;2023-03-26T10:44:09;8.30;99.90
16102;DHT22;56411;52.964;10.540;2023-03-26T10:46:58;8.20;99.90
16102;DHT22;56411;52.964;10.540;2023-03-26T10:49:43;8.20;99.90
16102;DHT22;56411;52.964;10.540;2023-03-26T10:52:17;8.20;99.90
16102;DHT22;56411;52.964;10.540;2023-03-26T10:54:52;8.10;99.90
16102;DHT22;56411;52.964;10.540;2023-03-26T10:57:32;8.00;99.90
16102;DHT22;56411;52.964;10.540;2023-03-26T11:00:13;7.90;99.90
16102;DHT22;56411;52.964;10.540;2023-03-26T11:02:45;8.00;99.90
16102;DHT22;56411;52.964;10.540;2023-03-26T11:05:25;8.00;99.90
16102;DHT22;56411;52.964;10.540;2023-03-26T11:08:00;8.20;99.90
16102;DHT22;56411;52.964;10.540;2023-03-26T11:10:35;8.40;99.90
16102;DHT22;56411;52.964;10.540;2023-03-26T11:13:14;8.50;99.90
16102;DHT22;56411;52.964;10.540;2023-03-26T11:15:47;8.50;99.90
16102;DHT22;56411;52.964;10.540;2023-03-26T11:18:22;8.40;99.90
16102;DHT22;56411;52.964;10.540;2023-03-26T11:20:56;8.30;99.90
16102;DHT22;56411;52.964;10.540;2023-03-26T11:23:33;8.30;99.90
16102;DHT22;56411;52.964;10.540;2023-03-26T11:26:10;8.40;99.90
16102;DHT22;56411;52.964;10.540;2023-03-26T11:29:04;8.30;99.90
16102;DHT22;56411;52.964;10.540;2023-03-26T11:31:41;8.40;99.90
16102;DHT22;56411;52.964;10.540;2023-03-26T11:34:14;8.60;99.90
16102;DHT22;56411;52.964;10.540;2023-03-26T11:36:46;8.70;99.90
16102;DHT22;56411;52.964;10.540;2023-03-26T11:39:20;8.60;99.90
16102;DHT22;56411;52.964;10.540;2023-03-26T11:41:51;8.60;99.90
16102;DHT22;56411;52.964;10.540;2023-03-26T11:44:25;8.50;99.90
16102;DHT22;56411;52.964;10.540;2023-03-26T11:46:57;8.40;99.90
16102;DHT22;56411;52.964;10.540;2023-03-26T11:49:28;8.40;99.90
16102;DHT22;56411;52.964;10.540;2023-03-26T11:51:58;8.40;99.90
16102;DHT22;56411;52.964;10.540;2023-03-26T11:54:26;8.40;99.90
16102;DHT22;56411;52.964;10.540;2023-03-26T11:56:55;8.50;99.90
16102;DHT22;56411;52.964;10.540;2023-03-26T11:59:26;8.30;99.90
16102;DHT22;56411;52.964;10.540;2023-03-26T12:01:56;8.20;99.90
16102;DHT22;56411;52.964;10.540;2023-03-26T12:04:26;8.20;99.90
16102;DHT22;56411;52.964;10.540;2023-03-26T12:07:05;8.20;99.90
16102;DHT22;56411;52.964;10.540;2023-03-26T12:09:32;8.40;99.90
16102;DHT22;56411;52.964;10.540;2023-03-26T12:12:02;8.70;99.90
16102;DHT22;56411;52.964;10.540;2023-03-26T12:14:31;9.10;99.90
16102;DHT22;56411;52.964;10.540;2023-03-26T12:17:02;10.00;99.90
16102;DHT22;56411;52.964;10.540;2023-03-26T12:19:38;11.00;99.90
16102;DHT22;56411;52.964;10.540;2023-03-26T12:22:26;11.80;99.90
16102;DHT22;56411;52.964;10.540;2023-03-26T12:25:00;12.60;99.90
16102;DHT22;56411;52.964;10.540;2023-03-26T12:27:27;13.50;99.90
16102;DHT22;56411;52.964;10.540;2023-03-26T12:29:58;13.00;99.90
16102;DHT22;56411;52.964;10.540;2023-03-26T12:32:31;12.40;99.90
16102;DHT22;56411;52.964;10.540;2023-03-26T12:35:04;11.90;99.90
16102;DHT22;56411;52.964;10.540;2023-03-26T12:37:36;11.50;99.90
16102;DHT22;56411;52.964;10.540;2023-03-26T12:40:22;11.10;99.90
16102;DHT22;56411;52.964;10.540;2023-03-26T12:42:55;10.80;99.90
16102;DHT22;56411;52.964;10.540;2023-03-26T12:45:27;10.50;99.90
16102;DHT22;56411;52.964;10.540;2023-03-26T12:47:55;10.50;99.90
16102;DHT22;56411;52.964;10.540;2023-03-26T12:50:27;10.40;99.90
16102;DHT22;56411;52.964;10.540;2023-03-26T12:53:02;9.90;99.90
16102;DHT22;56411;52.964;10.540;2023-03-26T12:55:39;9.50;99.90
16102;DHT22;56411;52.964;10.540;2023-03-26T12:58:29;9.40;99.90
16102;DHT22;56411;52.964;10.540;2023-03-26T13:01:07;9.30;99.90
16102;DHT22;56411;52.964;10.540;2023-03-26T13:03:49;9.30;99.90
16102;DHT22;56411;52.964;10.540;2023-03-26T13:06:27;9.30;99.90
16102;DHT22;56411;52.964;10.540;2023-03-26T13:09:30;9.40;99.90
16102;DHT22;56411;52.964;10.540;2023-03-26T13:12:09;9.30;99.90
16102;DHT22;56411;52.964;10.540;2023-03-26T13:14:56;9.20;99.90
16102;DHT22;56411;52.964;10.540;2023-03-26T13:17:31;8.90;99.90
16102;DHT22;56411;52.964;10.540;2023-03-26T13:20:03;8.90;99.90
16102;DHT22;56411;52.964;10.540;2023-03-26T13:22:41;8.90;99.90
16102;DHT22;56411;52.964;10.540;2023-03-26T13:25:22;9.00;99.90
16102;DHT22;56411;52.964;10.540;2023-03-26T13:28:02;9.10;99.90
16102;DHT22;56411;52.964;10.540;2023-03-26T13:30:36;9.00;99.90
16102;DHT22;56411;52.964;10.540;2023-03-26T13:33:22;9.20;99.90
16102;DHT22;56411;52.964;10.540;2023-03-26T13:35:58;9.30;99.90
16102;DHT22;56411;52.964;10.540;2023-03-26T13:38:34;9.40;99.90
16102;DHT22;56411;52.964;10.540;2023-03-26T13:41:08;9.50;99.90
16102;DHT22;56411;52.964;10.540;2023-03-26T13:43:47;9.50;99.90
16102;DHT22;56411;52.964;10.540;2023-03-26T13:46:26;9.60;99.90
16102;DHT22;56411;52.964;10.540;2023-03-26T13:48:59;9.60;99.90
16102;DHT22;56411;52.964;10.540;2023-03-26T13:51:32;9.70;99.90
16102;DHT22;56411;52.964;10.540;2023-03-26T13:54:09;9.60;99.90
16102;DHT22;56411;52.964;10.540;2023-03-26T13:56:43;9.50;99.90
16102;DHT22;56411;52.964;10.540;2023-03-26T13:59:17;9.30;99.90
16102;DHT22;56411;52.964;10.540;2023-03-26T14:01:49;9.30;99.90
16102;DHT22;56411;52.964;10.540;2023-03-26T14:04:23;9.30;99.90
16102;DHT22;56411;52.964;10.540;2023-03-26T14:06:59;9.30;99.90
16102;DHT22;56411;52.964;10.540;2023-03-26T14:09:32;9.40;99.90
16102;DHT22;56411;52.964;10.540;2023-03-26T14:12:41;9.30;99.90
16102;DHT22;56411;52.964;10.540;2023-03-26T14:15:18;9.50;99.90
16102;DHT22;56411;52.964;10.540;2023-03-26T14:17:50;9.40;99.90
16102;DHT22;56411;52.964;10.540;2023-03-26T14:23:37;9.30;99.90
16102;DHT22;56411;52.964;10.540;2023-03-26T14:26:19;9.40;99.90
16102;DHT22;56411;52.964;10.540;2023-03-26T14:29:08;9.60;99.90
16102;DHT22;56411;52.964;10.540;2023-03-26T14:31:44;10.10;99.90
16102;DHT22;56411;52.964;10.540;2023-03-26T14:34:30;11.10;99.90
16102;DHT22;56411;52.964;10.540;2023-03-26T14:37:25;12.70;99.90
16102;DHT22;56411;52.964;10.540;2023-03-26T14:40:15;13.80;99.90
16102;DHT22;56411;52.964;10.540;2023-03-26T14:42:51;14.10;99.90
16102;DHT22;56411;52.964;10.540;2023-03-26T14:45:34;14.40;99.90
16102;DHT22;56411;52.964;10.540;2023-03-26T14:51:11;12.60;99.90
16102;DHT22;56411;52.964;10.540;2023-03-26T14:53:44;11.80;99.90
16102;DHT22;56411;52.964;10.540;2023-03-26T15:02:55;12.20;99.90
16102;DHT22;56411;52.964;10.540;2023-03-26T15:05:58;12.50;99.90
16102;DHT22;56411;52.964;10.540;2023-03-26T15:11:46;12.70;99.90
16102;DHT22;56411;52.964;10.540;2023-03-26T15:14:42;13.20;99.90
16102;DHT22;56411;52.964;10.540;2023-03-26T15:17:45;13.10;99.90
16102;DHT22;56411;52.964;10.540;2023-03-26T15:20:46;12.20;99.90
16102;DHT22;56411;52.964;10.540;2023-03-26T15:23:43;12.40;99.90
16102;DHT22;56411;52.964;10.540;2023-03-26T15:26:51;12.80;99.90
16102;DHT22;56411;52.964;10.540;2023-03-26T15:32:36;12.20;99.90
16102;DHT22;56411;52.964;10.540;2023-03-26T15:41:14;12.90;99.90
16102;DHT22;56411;52.964;10.540;2023-03-26T15:44:16;12.80;99.90
16102;DHT22;56411;52.964;10.540;2023-03-26T15:46:56;12.40;99.90
16102;DHT22;56411;52.964;10.540;2023-03-26T15:49:34;12.20;99.90
16102;DHT22;56411;52.964;10.540;2023-03-26T15:52:11;12.40;99.90
16102;DHT22;56411;52.964;10.540;2023-03-26T15:54:46;12.40;99.90
16102;DHT22;56411;52.964;10.540;2023-03-26T15:57:25;12.20;99.90
16102;DHT22;56411;52.964;10.540;2023-03-26T16:00:05;12.30;99.90
16102;DHT22;56411;52.964;10.540;2023-03-26T16:02:44;12.50;99.90
16102;DHT22;56411;52.964;10.540;2023-03-26T16:05:26;12.10;99.90
16102;DHT22;56411;52.964;10.540;2023-03-26T16:08:01;11.00;99.90
16102;DHT22;56411;52.964;10.540;2023-03-26T16:10:36;10.30;99.90
16102;DHT22;56411;52.964;10.540;2023-03-26T16:13:36;9.70;99.90
16102;DHT22;56411;52.964;10.540;2023-03-26T16:16:22;9.40;99.90
16102;DHT22;56411;52.964;10.540;2023-03-26T16:18:55;9.20;99.90
16102;DHT22;56411;52.964;10.540;2023-03-26T16:21:45;9.10;99.90
16102;DHT22;56411;52.964;10.540;2023-03-26T16:24:28;8.90;99.90
16102;DHT22;56411;52.964;10.540;2023-03-26T16:27:31;8.80;99.90
16102;DHT22;56411;52.964;10.540;2023-03-26T16:30:28;8.70;99.90
16102;DHT22;56411;52.964;10.540;2023-03-26T16:33:02;8.50;99.90
16102;DHT22;56411;52.964;10.540;2023-03-26T16:35:39;8.50;99.90
16102;DHT22;56411;52.964;10.540;2023-03-26T16:38:12;8.40;99.90
16102;DHT22;56411;52.964;10.540;2023-03-26T16:40:52;8.40;99.90
16102;DHT22;56411;52.964;10.540;2023-03-26T16:43:45;8.40;99.90
16102;DHT22;56411;52.964;10.540;2023-03-26T16:46:29;8.40;99.90
16102;DHT22;56411;52.964;10.540;2023-03-26T16:49:01;8.30;99.90
16102;DHT22;56411;52.964;10.540;2023-03-26T16:51:55;8.30;99.90
16102;DHT22;56411;52.964;10.540;2023-03-26T16:54:34;8.20;99.90
16102;DHT22;56411;52.964;10.540;2023-03-26T16:57:15;8.20;99.90
16102;DHT22;56411;52.964;10.540;2023-03-26T17:00:03;8.20;99.90
16102;DHT22;56411;52.964;10.540;2023-03-26T17:02:42;8.20;99.90
16102;DHT22;56411;52.964;10.540;2023-03-26T17:05:19;8.10;99.90
16102;DHT22;56411;52.964;10.540;2023-03-26T17:07:53;8.10;99.90